createdAt,value
2023-04-07T00:04:15.733Z,8.95
2023-04-07T00:09:24.983Z,9.55
2023-04-07T00:14:33.203Z,8.87
2023-04-07T00:19:43.090Z,10.00
2023-04-07T00:24:52.763Z,7.01
2023-04-07T00:30:01.495Z,9.03
2023-04-07T00:35:13.223Z,10.56
2023-04-07T00:40:14.408Z,9.71
2023-04-07T00:45:14.960Z,9.52
2023-04-07T00:50:07.293Z,9.03
2023-04-07T00:55:18.068Z,8.81
2023-04-07T01:00:18.706Z,10.24
2023-04-07T01:05:18.477Z,11.60
2023-04-07T01:10:26.965Z,10.00
2023-04-07T01:15:35.192Z,8.71
2023-04-07T01:20:43.632Z,8.43
2023-04-07T01:25:52.105Z,9.75
2023-04-07T01:31:00.921Z,8.33
2023-04-07T01:36:10.784Z,9.73
2023-04-07T01:41:21.079Z,9.19
2023-04-07T01:46:19.203Z,7.67
2023-04-07T01:51:27.861Z,9.46
2023-04-07T01:56:37.183Z,11.20
2023-04-07T02:01:49.252Z,7.81
2023-04-07T02:06:48.171Z,10.73
2023-04-07T02:12:00.559Z,11.71
2023-04-07T02:16:59.584Z,8.64
2023-04-07T02:22:09.312Z,9.78
2023-04-07T02:27:21.607Z,8.03
2023-04-07T02:32:20.257Z,9.08
2023-04-07T02:37:29.838Z,10.43
2023-04-07T02:42:39.779Z,9.19
2023-04-07T02:47:48.345Z,9.70
2023-04-07T02:52:58.441Z,11.04
2023-04-07T02:57:57.619Z,10.80
2023-04-07T03:03:07.205Z,9.98
2023-04-07T03:08:16.546Z,10.37
2023-04-07T03:13:26.199Z,10.37
2023-04-07T03:18:37.156Z,10.13
2023-04-07T03:23:37.405Z,9.97
2023-04-07T03:28:35.600Z,9.22
2023-04-07T03:33:44.128Z,9.28
2023-04-07T03:38:52.617Z,9.13
2023-04-07T03:44:02.177Z,11.86
2023-04-07T03:49:11.306Z,10.08
2023-04-07T03:54:21.015Z,9.00
2023-04-07T03:59:30.734Z,8.73
2023-04-07T04:04:39.504Z,10.77
2023-04-07T04:09:48.632Z,9.47
2023-04-07T04:14:57.516Z,10.65
2023-04-07T04:20:07.488Z,11.73
2023-04-07T04:25:17.660Z,9.88
2023-04-07T04:30:16.970Z,9.92
2023-04-07T04:35:25.536Z,10.31
2023-04-07T04:40:33.830Z,9.36
2023-04-07T04:45:42.910Z,9.21
2023-04-07T04:50:52.080Z,11.39
2023-04-07T04:56:02.496Z,9.28
2023-04-07T05:01:01.926Z,9.98
2023-04-07T05:06:11.636Z,8.50
2023-04-07T05:11:21.385Z,9.19
2023-04-07T05:16:30.260Z,9.48
2023-04-07T05:21:39.833Z,11.48
2023-04-07T05:26:48.706Z,10.61
2023-04-07T05:31:59.852Z,9.25
2023-04-07T05:36:58.338Z,11.81
2023-04-07T05:42:06.841Z,10.38
2023-04-07T05:47:15.241Z,8.82
2023-04-07T05:52:24.759Z,8.39
2023-04-07T05:57:33.684Z,9.36
2023-04-07T06:02:43.647Z,10.31
2023-04-07T06:07:52.435Z,8.66
2023-04-07T06:13:01.680Z,9.06
2023-04-07T06:18:11.669Z,7.91
2023-04-07T06:23:11.480Z,8.70
2023-04-07T06:28:20.440Z,9.14
2023-04-07T06:33:29.216Z,10.90
2023-04-07T06:38:38.052Z,8.85
2023-04-07T06:43:47.795Z,9.82
2023-04-07T06:48:55.896Z,8.20
2023-04-07T06:54:04.271Z,11.34
2023-04-07T06:59:14.595Z,8.81
2023-04-07T07:04:15.101Z,11.08
2023-04-07T07:09:15.241Z,10.66
2023-04-07T07:14:14.092Z,9.34
2023-04-07T07:19:24.400Z,9.49
2023-04-07T07:24:23.770Z,11.52
2023-04-07T07:29:34.491Z,10.87
2023-04-07T07:34:34.140Z,9.93
2023-04-07T07:39:44.503Z,10.80
2023-04-07T07:44:44.063Z,12.92
2023-04-07T07:49:52.514Z,9.48
2023-04-07T07:55:00.785Z,10.28
2023-04-07T08:00:11.013Z,10.85
2023-04-07T08:05:09.363Z,11.94
2023-04-07T08:10:18.032Z,11.47
2023-04-07T08:15:26.547Z,11.56
2023-04-07T08:20:36.574Z,10.63
2023-04-07T08:25:34.748Z,12.07
2023-04-07T08:30:44.396Z,12.78
2023-04-07T08:35:54.341Z,12.45
2023-04-07T08:41:04.230Z,12.67
2023-04-07T08:46:12.708Z,11.96
2023-04-07T08:51:21.615Z,11.87
2023-04-07T08:56:32.017Z,11.66
2023-04-07T09:01:32.032Z,12.18
2023-04-07T09:06:40.017Z,11.27
2023-04-07T09:11:49.788Z,11.61
2023-04-07T09:17:00.016Z,11.06
2023-04-07T09:21:59.923Z,12.38
2023-04-07T09:27:09.877Z,13.47
2023-04-07T09:32:18.469Z,13.18
2023-04-07T09:37:26.896Z,15.47
2023-04-07T09:42:38.058Z,12.11
2023-04-07T09:47:36.044Z,11.11
2023-04-07T09:52:46.546Z,13.83
2023-04-07T09:57:45.780Z,12.48
2023-04-07T10:02:55.536Z,12.90
2023-04-07T10:08:03.893Z,13.55
2023-04-07T10:13:12.950Z,13.88
2023-04-07T10:18:22.550Z,14.02
2023-04-07T10:23:31.492Z,15.56
2023-04-07T10:28:41.147Z,13.22
2023-04-07T10:33:50.689Z,13.12
2023-04-07T10:39:00.391Z,12.16
2023-04-07T10:43:59.016Z,11.94
2023-04-07T10:49:07.999Z,13.16
2023-04-07T10:54:18.178Z,12.34
2023-04-07T10:59:17.946Z,14.11
2023-04-07T11:04:29.722Z,11.96
2023-04-07T11:09:28.824Z,13.20
2023-04-07T11:14:37.601Z,11.82
2023-04-07T11:19:45.929Z,12.18
2023-04-07T11:24:55.494Z,15.16
2023-04-07T11:30:05.303Z,13.55
2023-04-07T11:35:13.959Z,13.21
2023-04-07T11:40:22.038Z,12.46
2023-04-07T11:45:30.718Z,13.05
2023-04-07T11:50:39.318Z,12.46
2023-04-07T11:55:47.745Z,12.01
2023-04-07T12:00:59.396Z,12.76
2023-04-07T12:05:58.003Z,12.10
2023-04-07T12:11:06.522Z,12.82
2023-04-07T12:16:17.678Z,14.61
2023-04-07T12:21:18.121Z,12.82
2023-04-07T12:26:18.212Z,11.54
2023-04-07T12:31:18.491Z,12.71
2023-04-07T12:36:19.790Z,11.85
2023-04-07T12:41:12.718Z,10.55
2023-04-07T12:46:22.341Z,10.92
2023-04-07T12:51:31.548Z,11.02
2023-04-07T12:56:42.057Z,10.54
2023-04-07T13:01:43.860Z,10.52
2023-04-07T13:06:43.460Z,12.81
2023-04-07T13:11:52.968Z,12.31
2023-04-07T13:17:02.797Z,10.83
2023-04-07T13:22:17.818Z,13.59
2023-04-07T13:27:22.411Z,11.80
2023-04-07T13:32:20.976Z,10.72
2023-04-07T13:37:30.517Z,10.34
2023-04-07T13:42:40.944Z,11.01
2023-04-07T13:47:40.771Z,11.95
2023-04-07T13:52:53.712Z,10.56
2023-04-07T13:57:52.652Z,11.71
2023-04-07T14:03:02.824Z,11.18
2023-04-07T14:08:11.009Z,14.32
2023-04-07T14:13:19.705Z,11.81
2023-04-07T14:18:28.359Z,11.26
2023-04-07T14:23:39.059Z,14.12
2023-04-07T14:28:39.009Z,11.91
2023-04-07T14:33:48.112Z,12.28
2023-04-07T14:38:57.671Z,12.16
2023-04-07T14:44:05.896Z,12.58
2023-04-07T14:49:16.467Z,14.00
2023-04-07T14:54:17.882Z,13.12
2023-04-07T14:59:17.049Z,12.48
2023-04-07T15:04:27.458Z,12.41
2023-04-07T15:09:27.096Z,12.67
2023-04-07T15:14:37.038Z,12.51
2023-04-07T15:19:46.011Z,11.43
2023-04-07T15:24:54.478Z,11.60
2023-04-07T15:30:04.844Z,12.00
2023-04-07T15:35:03.470Z,10.82
2023-04-07T15:40:13.568Z,11.70
2023-04-07T15:45:13.004Z,11.56
2023-04-07T15:50:23.545Z,12.05
2023-04-07T15:55:24.005Z,11.81
2023-04-07T16:00:24.379Z,12.13
2023-04-07T16:05:25.824Z,12.10
2023-04-07T16:10:24.838Z,11.19
2023-04-07T16:15:40.488Z,10.13
2023-04-07T16:20:34.117Z,11.32
2023-04-07T16:25:44.049Z,11.26
2023-04-07T16:30:54.615Z,12.62
2023-04-07T16:35:53.347Z,10.96
2023-04-07T16:41:04.393Z,12.15
2023-04-07T16:46:13.229Z,10.65
2023-04-07T16:51:13.368Z,11.15
2023-04-07T16:56:11.897Z,10.80
2023-04-07T17:01:26.366Z,10.09
2023-04-07T17:06:25.974Z,10.72
2023-04-07T17:11:35.724Z,9.90
2023-04-07T17:16:44.317Z,9.78
2023-04-07T17:21:54.166Z,13.68
2023-04-07T17:27:02.806Z,11.89
2023-04-07T17:32:12.626Z,9.45
2023-04-07T17:37:21.962Z,9.41
2023-04-07T17:42:32.260Z,12.09
2023-04-07T17:47:30.722Z,9.70
2023-04-07T17:52:42.924Z,10.47
2023-04-07T17:57:42.696Z,10.24
2023-04-07T18:02:53.684Z,11.37
2023-04-07T18:07:52.419Z,9.78
2023-04-07T18:13:02.905Z,12.11
2023-04-07T18:18:02.673Z,14.85
2023-04-07T18:23:13.299Z,15.70
2023-04-07T18:28:13.278Z,15.87
2023-04-07T18:33:23.809Z,14.48
2023-04-07T18:38:23.495Z,11.76
2023-04-07T18:43:32.432Z,12.13
2023-04-07T18:48:42.439Z,11.42
2023-04-07T18:53:46.341Z,10.07
2023-04-07T18:58:55.670Z,9.56
2023-04-07T19:04:06.193Z,11.51
2023-04-07T19:09:07.717Z,12.38
2023-04-07T19:14:10.253Z,14.32
2023-04-07T19:19:08.483Z,16.27
2023-04-07T19:24:18.652Z,17.06
2023-04-07T19:29:17.529Z,18.86
2023-04-07T19:34:27.826Z,14.08
2023-04-07T19:39:28.613Z,16.97
2023-04-07T19:44:27.822Z,15.36
2023-04-07T19:49:37.672Z,14.78
2023-04-07T19:54:47.764Z,13.75
2023-04-07T19:59:39.933Z,13.98
2023-04-07T20:04:49.691Z,12.97
2023-04-07T20:09:58.902Z,12.61
2023-04-07T20:15:09.497Z,14.90
2023-04-07T20:20:08.965Z,11.98
2023-04-07T20:25:20.185Z,12.90
2023-04-07T20:30:20.031Z,10.49
2023-04-07T20:35:29.028Z,10.23
2023-04-07T20:40:40.748Z,10.34
2023-04-07T20:45:40.638Z,10.79
2023-04-07T20:50:50.221Z,8.91
2023-04-07T20:56:00.696Z,9.32
2023-04-07T21:00:57.633Z,10.52
2023-04-07T21:06:08.960Z,10.79
2023-04-07T21:11:07.113Z,10.65
2023-04-07T21:16:17.661Z,9.46
2023-04-07T21:21:15.705Z,10.65
2023-04-07T21:26:27.824Z,8.44
2023-04-07T21:31:25.002Z,10.48
2023-04-07T21:36:34.645Z,10.20
2023-04-07T21:41:43.902Z,10.36
2023-04-07T21:46:54.460Z,9.74
2023-04-07T21:51:55.459Z,9.77
2023-04-07T21:56:56.130Z,11.35
2023-04-07T22:01:54.666Z,9.18
2023-04-07T22:07:03.441Z,8.96
2023-04-07T22:12:13.254Z,9.48
2023-04-07T22:17:21.935Z,10.62
2023-04-07T22:22:30.622Z,10.49
2023-04-07T22:27:40.985Z,10.77
2023-04-07T22:32:40.748Z,10.26
2023-04-07T22:37:49.429Z,9.62
2023-04-07T22:42:58.942Z,12.01
2023-04-07T22:48:07.847Z,9.84
2023-04-07T22:53:16.328Z,9.23
2023-04-07T22:58:26.172Z,8.84
2023-04-07T23:03:35.818Z,7.86
2023-04-07T23:08:45.041Z,8.54
2023-04-07T23:13:54.638Z,7.79
2023-04-07T23:19:04.344Z,6.79
2023-04-07T23:24:13.610Z,8.84
2023-04-07T23:29:23.677Z,7.79
2023-04-07T23:34:23.790Z,8.86
2023-04-07T23:39:24.291Z,8.42
2023-04-07T23:44:22.946Z,7.57
2023-04-07T23:49:31.595Z,8.17
2023-04-07T23:54:41.865Z,8.43
2023-04-07T23:59:41.186Z,8.28
